Chronik & Geschichte

Boeing Stearman am Flugplatz Konstanz

Mit seiner 107-jährigen Geschichte ist Konstanz der älteste Verkehrslandeplatz Deutschlands. Lesen Sie unsere Festschrift zum 100-jährigen Platzjubiläum oder entdecken Sie die ausführliche Flugplatzchronik auf der Website der Initiative PRO Flugplatz Konstanz.

Live am Platz

Die Bilder unserer Webcams werden alle 5 Minuten aktualisiert.

Sonnenaufgang:

03:25 UTC / 05:25 Lokal

Sonnenuntergang:

19:27 UTC / 21:27 Lokal

METAR (26.06.2019 01:50 UTC):

EDNY 260150Z AUTO VRB01KT 9999 // NCD 19/18 Q1023
VFR

TAF (25.06.2019 23:00 UTC):

TAF EDNY 252300Z 2600/2624 05003KT CAVOK BECMG 2609/2611 24005KT BECMG 2616/2619 05003KT

Alle Angaben unverbindlich und ohne Gewähr. Zeiten genähert.

Für den Verkehrslandeplatz Konstanz werden keine offiziellen Wetterinformationen ausgegeben. Daher werden zur Orientierung Daten des nahegelegenen Flughafens Friedrichshafen dargestellt.

Flugwetterdaten zur Verfügung gestellt von wippich.aero.